sensor_id;sensor_type;location;lat;lon;timestamp;pressure;altitude;pressure_sealevel;temperature;humidity
6349;BME280;3207;42.648;23.406;2023-04-07T00:00:21;100050.25;;;7.88;nan
6349;BME280;3207;42.648;23.406;2023-04-07T00:02:48;100050.53;;;7.83;nan
6349;BME280;3207;42.648;23.406;2023-04-07T00:05:16;100047.53;;;7.75;nan
6349;BME280;3207;42.648;23.406;2023-04-07T00:07:43;100044.00;;;7.76;nan
6349;BME280;3207;42.648;23.406;2023-04-07T00:10:10;100048.38;;;7.76;nan
6349;BME280;3207;42.648;23.406;2023-04-07T00:12:37;100048.13;;;7.80;nan
6349;BME280;3207;42.648;23.406;2023-04-07T00:15:04;100043.38;;;7.72;nan
6349;BME280;3207;42.648;23.406;2023-04-07T00:17:31;100047.72;;;7.58;nan
6349;BME280;3207;42.648;23.406;2023-04-07T00:19:58;100046.63;;;7.62;nan
6349;BME280;3207;42.648;23.406;2023-04-07T00:22:26;100043.44;;;7.57;nan
6349;BME280;3207;42.648;23.406;2023-04-07T00:24:53;100045.13;;;7.58;nan
6349;BME280;3207;42.648;23.406;2023-04-07T00:27:20;100041.94;;;7.53;nan
6349;BME280;3207;42.648;23.406;2023-04-07T00:29:47;100041.69;;;7.57;nan
6349;BME280;3207;42.648;23.406;2023-04-07T00:32:14;100044.97;;;7.61;nan
6349;BME280;3207;42.648;23.406;2023-04-07T00:34:41;100056.72;;;7.52;nan
6349;BME280;3207;42.648;23.406;2023-04-07T00:37:08;100051.22;;;7.43;nan
6349;BME280;3207;42.648;23.406;2023-04-07T00:39:36;100046.38;;;7.22;nan
6349;BME280;3207;42.648;23.406;2023-04-07T00:42:04;100045.06;;;7.15;nan
6349;BME280;3207;42.648;23.406;2023-04-07T00:44:30;100045.44;;;7.23;nan
6349;BME280;3207;42.648;23.406;2023-04-07T00:46:58;100014.94;;;7.11;nan
6349;BME280;3207;42.648;23.406;2023-04-07T00:49:25;100043.22;;;7.31;nan
6349;BME280;3207;42.648;23.406;2023-04-07T00:51:53;100043.81;;;7.37;nan
6349;BME280;3207;42.648;23.406;2023-04-07T00:54:20;100019.66;;;7.20;nan
6349;BME280;3207;42.648;23.406;2023-04-07T00:56:49;100042.19;;;7.20;nan
6349;BME280;3207;42.648;23.406;2023-04-07T00:59:16;100044.50;;;7.24;nan
6349;BME280;3207;42.648;23.406;2023-04-07T01:01:45;100042.66;;;7.26;nan
6349;BME280;3207;42.648;23.406;2023-04-07T01:04:21;100009.16;;;6.92;nan
6349;BME280;3207;42.648;23.406;2023-04-07T01:06:55;100031.88;;;7.18;nan
6349;BME280;3207;42.648;23.406;2023-04-07T01:09:32;100027.03;;;7.12;nan
6349;BME280;3207;42.648;23.406;2023-04-07T01:12:09;100024.44;;;7.12;nan
6349;BME280;3207;42.648;23.406;2023-04-07T01:14:44;100019.53;;;7.08;nan
6349;BME280;3207;42.648;23.406;2023-04-07T01:17:14;100030.38;;;7.14;nan
6349;BME280;3207;42.648;23.406;2023-04-07T01:19:46;100024.25;;;7.15;nan
6349;BME280;3207;42.648;23.406;2023-04-07T01:22:17;99957.78;;;6.67;nan
6349;BME280;3207;42.648;23.406;2023-04-07T01:25:25;100031.56;;;6.79;nan
6349;BME280;3207;42.648;23.406;2023-04-07T01:28:03;100029.56;;;6.68;nan
6349;BME280;3207;42.648;23.406;2023-04-07T01:30:39;100021.38;;;6.76;nan
6349;BME280;3207;42.648;23.406;2023-04-07T01:33:08;100016.19;;;6.90;nan
6349;BME280;3207;42.648;23.406;2023-04-07T01:35:36;100032.47;;;6.93;nan
6349;BME280;3207;42.648;23.406;2023-04-07T01:38:04;100022.72;;;6.67;nan
6349;BME280;3207;42.648;23.406;2023-04-07T01:40:32;100023.66;;;6.66;nan
6349;BME280;3207;42.648;23.406;2023-04-07T01:43:01;100022.44;;;6.72;nan
6349;BME280;3207;42.648;23.406;2023-04-07T01:45:28;100022.38;;;6.73;nan
6349;BME280;3207;42.648;23.406;2023-04-07T01:47:58;100022.97;;;6.63;nan
6349;BME280;3207;42.648;23.406;2023-04-07T01:50:25;100026.84;;;6.55;nan
6349;BME280;3207;42.648;23.406;2023-04-07T01:52:53;100024.72;;;6.46;nan
6349;BME280;3207;42.648;23.406;2023-04-07T01:55:20;100011.88;;;6.45;nan
6349;BME280;3207;42.648;23.406;2023-04-07T01:57:47;100012.34;;;6.51;nan
6349;BME280;3207;42.648;23.406;2023-04-07T02:00:14;100021.81;;;6.37;nan
6349;BME280;3207;42.648;23.406;2023-04-07T02:02:43;100022.25;;;6.29;nan
6349;BME280;3207;42.648;23.406;2023-04-07T02:05:17;100017.88;;;6.30;nan
6349;BME280;3207;42.648;23.406;2023-04-07T02:07:48;100019.41;;;6.18;nan
6349;BME280;3207;42.648;23.406;2023-04-07T02:10:20;100021.47;;;6.27;nan
6349;BME280;3207;42.648;23.406;2023-04-07T02:12:48;100015.72;;;6.22;nan
6349;BME280;3207;42.648;23.406;2023-04-07T02:15:15;100018.56;;;6.17;nan
6349;BME280;3207;42.648;23.406;2023-04-07T02:17:47;100008.75;;;6.07;nan
6349;BME280;3207;42.648;23.406;2023-04-07T02:20:17;100010.19;;;6.12;nan
6349;BME280;3207;42.648;23.406;2023-04-07T02:22:45;100017.16;;;6.12;nan
6349;BME280;3207;42.648;23.406;2023-04-07T02:25:22;99999.75;;;6.14;nan
6349;BME280;3207;42.648;23.406;2023-04-07T02:27:49;100006.41;;;6.18;nan
6349;BME280;3207;42.648;23.406;2023-04-07T02:30:17;100020.31;;;6.17;nan
6349;BME280;3207;42.648;23.406;2023-04-07T02:32:43;100008.16;;;6.17;nan
6349;BME280;3207;42.648;23.406;2023-04-07T02:35:10;100016.47;;;6.08;nan
6349;BME280;3207;42.648;23.406;2023-04-07T02:37:39;100021.16;;;6.02;nan
6349;BME280;3207;42.648;23.406;2023-04-07T02:40:06;99987.28;;;5.87;nan
6349;BME280;3207;42.648;23.406;2023-04-07T02:42:33;100010.09;;;5.98;nan
6349;BME280;3207;42.648;23.406;2023-04-07T02:45:00;100007.66;;;5.95;nan
6349;BME280;3207;42.648;23.406;2023-04-07T02:47:27;100001.63;;;5.95;nan
6349;BME280;3207;42.648;23.406;2023-04-07T02:49:54;100010.09;;;5.98;nan
6349;BME280;3207;42.648;23.406;2023-04-07T02:52:21;100006.16;;;6.07;nan
6349;BME280;3207;42.648;23.406;2023-04-07T02:54:49;100008.94;;;6.04;nan
6349;BME280;3207;42.648;23.406;2023-04-07T02:57:16;100005.25;;;6.08;nan
6349;BME280;3207;42.648;23.406;2023-04-07T02:59:43;100004.25;;;6.10;nan
6349;BME280;3207;42.648;23.406;2023-04-07T03:02:10;100012.13;;;6.09;nan
6349;BME280;3207;42.648;23.406;2023-04-07T03:04:37;100009.25;;;5.98;nan
6349;BME280;3207;42.648;23.406;2023-04-07T03:07:04;99994.03;;;5.92;nan
6349;BME280;3207;42.648;23.406;2023-04-07T03:09:30;100009.25;;;5.98;nan
6349;BME280;3207;42.648;23.406;2023-04-07T03:11:59;100000.97;;;5.91;nan
6349;BME280;3207;42.648;23.406;2023-04-07T03:14:26;99997.34;;;5.94;nan
6349;BME280;3207;42.648;23.406;2023-04-07T03:16:53;99997.28;;;5.95;nan
6349;BME280;3207;42.648;23.406;2023-04-07T03:19:20;99998.31;;;5.93;nan
6349;BME280;3207;42.648;23.406;2023-04-07T03:21:47;99988.22;;;5.86;nan
6349;BME280;3207;42.648;23.406;2023-04-07T03:24:14;99989.75;;;5.91;nan
6349;BME280;3207;42.648;23.406;2023-04-07T03:26:41;99995.72;;;5.93;nan
6349;BME280;3207;42.648;23.406;2023-04-07T03:29:09;99999.22;;;5.92;nan
6349;BME280;3207;42.648;23.406;2023-04-07T03:31:35;99996.78;;;5.88;nan
6349;BME280;3207;42.648;23.406;2023-04-07T03:34:02;99995.31;;;5.83;nan
6349;BME280;3207;42.648;23.406;2023-04-07T03:36:29;99992.97;;;5.78;nan
6349;BME280;3207;42.648;23.406;2023-04-07T03:38:57;100008.00;;;5.89;nan
6349;BME280;3207;42.648;23.406;2023-04-07T03:41:24;100008.50;;;5.96;nan
6349;BME280;3207;42.648;23.406;2023-04-07T03:43:51;99998.81;;;5.99;nan
6349;BME280;3207;42.648;23.406;2023-04-07T03:46:19;99994.03;;;5.92;nan
6349;BME280;3207;42.648;23.406;2023-04-07T03:48:46;99998.31;;;5.93;nan
6349;BME280;3207;42.648;23.406;2023-04-07T03:51:13;99998.88;;;5.98;nan
6349;BME280;3207;42.648;23.406;2023-04-07T03:53:41;100001.06;;;5.90;nan
6349;BME280;3207;42.648;23.406;2023-04-07T03:56:08;99999.84;;;5.79;nan
6349;BME280;3207;42.648;23.406;2023-04-07T03:58:35;100000.34;;;5.70;nan
6349;BME280;3207;42.648;23.406;2023-04-07T04:01:03;99991.50;;;5.57;nan
6349;BME280;3207;42.648;23.406;2023-04-07T04:03:31;99996.56;;;5.60;nan
6349;BME280;3207;42.648;23.406;2023-04-07T04:05:58;99989.06;;;5.54;nan
6349;BME280;3207;42.648;23.406;2023-04-07T04:08:26;100007.22;;;5.54;nan
6349;BME280;3207;42.648;23.406;2023-04-07T04:10:52;100005.63;;;5.51;nan
6349;BME280;3207;42.648;23.406;2023-04-07T04:13:19;100006.31;;;5.55;nan
6349;BME280;3207;42.648;23.406;2023-04-07T04:15:46;100003.72;;;5.55;nan
6349;BME280;3207;42.648;23.406;2023-04-07T04:18:13;100005.31;;;5.58;nan
6349;BME280;3207;42.648;23.406;2023-04-07T04:20:41;99989.41;;;5.48;nan
6349;BME280;3207;42.648;23.406;2023-04-07T04:23:08;100005.72;;;5.50;nan
6349;BME280;3207;42.648;23.406;2023-04-07T04:25:35;100001.88;;;5.57;nan
6349;BME280;3207;42.648;23.406;2023-04-07T04:28:04;99993.69;;;5.49;nan
6349;BME280;3207;42.648;23.406;2023-04-07T04:30:31;100014.78;;;5.59;nan
6349;BME280;3207;42.648;23.406;2023-04-07T04:32:57;100009.50;;;5.60;nan
6349;BME280;3207;42.648;23.406;2023-04-07T04:35:24;100011.91;;;5.63;nan
6349;BME280;3207;42.648;23.406;2023-04-07T04:37:53;99948.28;;;5.25;nan
6349;BME280;3207;42.648;23.406;2023-04-07T04:40:19;100012.00;;;5.62;nan
6349;BME280;3207;42.648;23.406;2023-04-07T04:42:46;100014.94;;;5.56;nan
6349;BME280;3207;42.648;23.406;2023-04-07T04:45:13;100013.03;;;5.59;nan
6349;BME280;3207;42.648;23.406;2023-04-07T04:47:40;100005.53;;;5.53;nan
6349;BME280;3207;42.648;23.406;2023-04-07T04:50:09;99990.59;;;5.58;nan
6349;BME280;3207;42.648;23.406;2023-04-07T04:52:36;100013.16;;;5.56;nan
6349;BME280;3207;42.648;23.406;2023-04-07T04:55:06;100007.16;;;5.56;nan
6349;BME280;3207;42.648;23.406;2023-04-07T04:57:33;100009.31;;;5.47;nan
6349;BME280;3207;42.648;23.406;2023-04-07T05:00:00;99957.91;;;5.23;nan
6349;BME280;3207;42.648;23.406;2023-04-07T05:02:28;100010.59;;;5.56;nan
6349;BME280;3207;42.648;23.406;2023-04-07T05:04:55;100012.53;;;5.68;nan
6349;BME280;3207;42.648;23.406;2023-04-07T05:07:21;100012.72;;;5.81;nan
6349;BME280;3207;42.648;23.406;2023-04-07T05:09:48;100012.13;;;5.93;nan
6349;BME280;3207;42.648;23.406;2023-04-07T05:12:16;100016.97;;;5.99;nan
6349;BME280;3207;42.648;23.406;2023-04-07T05:14:43;100002.38;;;5.97;nan
6349;BME280;3207;42.648;23.406;2023-04-07T05:17:10;100021.31;;;5.99;nan
6349;BME280;3207;42.648;23.406;2023-04-07T05:19:37;100003.19;;;5.81;nan
6349;BME280;3207;42.648;23.406;2023-04-07T05:22:04;99999.16;;;5.60;nan
6349;BME280;3207;42.648;23.406;2023-04-07T05:24:30;100020.25;;;5.85;nan
6349;BME280;3207;42.648;23.406;2023-04-07T05:26:57;99992.47;;;5.72;nan
6349;BME280;3207;42.648;23.406;2023-04-07T05:29:25;100011.72;;;5.83;nan
6349;BME280;3207;42.648;23.406;2023-04-07T05:31:52;100013.75;;;5.94;nan
6349;BME280;3207;42.648;23.406;2023-04-07T05:34:19;99951.88;;;5.55;nan
6349;BME280;3207;42.648;23.406;2023-04-07T05:36:46;100008.00;;;6.05;nan
6349;BME280;3207;42.648;23.406;2023-04-07T05:39:13;100017.91;;;6.14;nan
6349;BME280;3207;42.648;23.406;2023-04-07T05:41:40;100012.47;;;6.34;nan
6349;BME280;3207;42.648;23.406;2023-04-07T05:44:07;99939.47;;;5.93;nan
6349;BME280;3207;42.648;23.406;2023-04-07T05:46:35;100010.44;;;6.55;nan
6349;BME280;3207;42.648;23.406;2023-04-07T05:49:02;100008.75;;;6.54;nan
6349;BME280;3207;42.648;23.406;2023-04-07T05:51:29;100014.03;;;6.82;nan
6349;BME280;3207;42.648;23.406;2023-04-07T05:53:55;100015.28;;;6.91;nan
6349;BME280;3207;42.648;23.406;2023-04-07T05:56:22;100009.28;;;7.05;nan
6349;BME280;3207;42.648;23.406;2023-04-07T05:58:49;100010.88;;;7.21;nan
6349;BME280;3207;42.648;23.406;2023-04-07T06:01:16;99994.94;;;7.27;nan
6349;BME280;3207;42.648;23.406;2023-04-07T06:03:44;100006.31;;;7.41;nan
6349;BME280;3207;42.648;23.406;2023-04-07T06:06:11;100008.63;;;7.59;nan
6349;BME280;3207;42.648;23.406;2023-04-07T06:08:38;100016.81;;;7.82;nan
6349;BME280;3207;42.648;23.406;2023-04-07T06:11:04;100013.41;;;8.08;nan
6349;BME280;3207;42.648;23.406;2023-04-07T06:13:31;100010.78;;;8.22;nan
6349;BME280;3207;42.648;23.406;2023-04-07T06:15:58;100007.78;;;8.42;nan
6349;BME280;3207;42.648;23.406;2023-04-07T06:18:25;100007.06;;;8.67;nan
6349;BME280;3207;42.648;23.406;2023-04-07T06:20:53;100010.59;;;9.06;nan
6349;BME280;3207;42.648;23.406;2023-04-07T06:23:20;100013.31;;;9.93;nan
6349;BME280;3207;42.648;23.406;2023-04-07T06:25:47;100015.88;;;11.25;nan
6349;BME280;3207;42.648;23.406;2023-04-07T06:28:16;100005.81;;;12.64;nan
6349;BME280;3207;42.648;23.406;2023-04-07T06:30:43;100011.16;;;13.77;nan
6349;BME280;3207;42.648;23.406;2023-04-07T06:33:10;100006.56;;;14.40;nan
6349;BME280;3207;42.648;23.406;2023-04-07T06:35:38;100003.25;;;14.96;nan
6349;BME280;3207;42.648;23.406;2023-04-07T06:38:06;100010.81;;;15.37;nan
6349;BME280;3207;42.648;23.406;2023-04-07T06:40:33;100009.06;;;15.85;nan
6349;BME280;3207;42.648;23.406;2023-04-07T06:43:00;100009.38;;;16.09;nan
6349;BME280;3207;42.648;23.406;2023-04-07T06:45:28;100016.66;;;15.31;nan
6349;BME280;3207;42.648;23.406;2023-04-07T06:47:55;100011.28;;;14.85;nan
6349;BME280;3207;42.648;23.406;2023-04-07T06:50:22;100018.09;;;14.18;nan
6349;BME280;3207;42.648;23.406;2023-04-07T06:52:48;100004.16;;;14.37;nan
6349;BME280;3207;42.648;23.406;2023-04-07T06:55:17;100015.56;;;15.24;nan
6349;BME280;3207;42.648;23.406;2023-04-07T06:57:43;100008.91;;;15.86;nan
6349;BME280;3207;42.648;23.406;2023-04-07T07:00:11;100007.44;;;16.01;nan
6349;BME280;3207;42.648;23.406;2023-04-07T07:02:37;100012.34;;;17.30;nan
6349;BME280;3207;42.648;23.406;2023-04-07T07:05:05;100019.22;;;18.43;nan
6349;BME280;3207;42.648;23.406;2023-04-07T07:07:32;100019.22;;;18.43;nan
6349;BME280;3207;42.648;23.406;2023-04-07T07:09:59;100006.41;;;19.21;nan
6349;BME280;3207;42.648;23.406;2023-04-07T07:14:54;100022.28;;;19.61;nan
6349;BME280;3207;42.648;23.406;2023-04-07T07:17:20;100012.88;;;19.02;nan
6349;BME280;3207;42.648;23.406;2023-04-07T07:19:47;100021.28;;;19.30;nan
6349;BME280;3207;42.648;23.406;2023-04-07T07:22:14;100016.34;;;19.59;nan
6349;BME280;3207;42.648;23.406;2023-04-07T07:24:41;100015.41;;;21.07;nan
6349;BME280;3207;42.648;23.406;2023-04-07T07:27:07;100010.25;;;21.80;nan
6349;BME280;3207;42.648;23.406;2023-04-07T07:29:36;99820.16;;;20.80;nan
6349;BME280;3207;42.648;23.406;2023-04-07T07:32:02;100021.44;;;22.05;nan
6349;BME280;3207;42.648;23.406;2023-04-07T07:34:30;99978.84;;;21.61;nan
6349;BME280;3207;42.648;23.406;2023-04-07T07:36:57;100024.56;;;21.04;nan
6349;BME280;3207;42.648;23.406;2023-04-07T07:39:24;100029.56;;;19.67;nan
6349;BME280;3207;42.648;23.406;2023-04-07T07:41:51;100029.56;;;18.70;nan
6349;BME280;3207;42.648;23.406;2023-04-07T07:44:19;100022.50;;;18.37;nan
6349;BME280;3207;42.648;23.406;2023-04-07T07:46:48;100023.66;;;17.92;nan
6349;BME280;3207;42.648;23.406;2023-04-07T07:49:15;100014.28;;;17.46;nan
6349;BME280;3207;42.648;23.406;2023-04-07T07:51:42;100009.09;;;16.93;nan
6349;BME280;3207;42.648;23.406;2023-04-07T07:54:10;100024.41;;;16.71;nan
6349;BME280;3207;42.648;23.406;2023-04-07T07:56:37;100029.91;;;16.33;nan
6349;BME280;3207;42.648;23.406;2023-04-07T07:59:04;100037.03;;;15.95;nan
6349;BME280;3207;42.648;23.406;2023-04-07T08:01:31;100028.91;;;15.79;nan
6349;BME280;3207;42.648;23.406;2023-04-07T08:04:00;100028.13;;;15.50;nan
6349;BME280;3207;42.648;23.406;2023-04-07T08:06:27;100023.47;;;14.86;nan
6349;BME280;3207;42.648;23.406;2023-04-07T08:08:56;100025.72;;;14.61;nan
6349;BME280;3207;42.648;23.406;2023-04-07T08:11:23;100021.81;;;14.65;nan
6349;BME280;3207;42.648;23.406;2023-04-07T08:13:50;100023.38;;;13.57;nan
6349;BME280;3207;42.648;23.406;2023-04-07T08:16:18;100023.56;;;13.66;nan
6349;BME280;3207;42.648;23.406;2023-04-07T08:18:46;100030.16;;;13.90;nan
6349;BME280;3207;42.648;23.406;2023-04-07T08:21:14;100027.03;;;13.97;nan
6349;BME280;3207;42.648;23.406;2023-04-07T08:23:41;100017.56;;;13.84;nan
6349;BME280;3207;42.648;23.406;2023-04-07T08:26:08;100022.34;;;13.70;nan
6349;BME280;3207;42.648;23.406;2023-04-07T08:28:35;100025.00;;;13.79;nan
6349;BME280;3207;42.648;23.406;2023-04-07T08:31:02;100026.59;;;13.61;nan
6349;BME280;3207;42.648;23.406;2023-04-07T08:33:28;100027.53;;;13.60;nan
6349;BME280;3207;42.648;23.406;2023-04-07T08:35:55;100023.66;;;12.81;nan
6349;BME280;3207;42.648;23.406;2023-04-07T08:38:24;100019.13;;;12.72;nan
6349;BME280;3207;42.648;23.406;2023-04-07T08:40:54;100014.41;;;12.66;nan
6349;BME280;3207;42.648;23.406;2023-04-07T08:43:25;100014.56;;;12.85;nan
6349;BME280;3207;42.648;23.406;2023-04-07T08:45:55;100017.06;;;12.55;nan
6349;BME280;3207;42.648;23.406;2023-04-07T08:48:23;100007.03;;;12.60;nan
6349;BME280;3207;42.648;23.406;2023-04-07T08:50:53;100000.41;;;12.44;nan
6349;BME280;3207;42.648;23.406;2023-04-07T08:53:25;100011.41;;;12.70;nan
6349;BME280;3207;42.648;23.406;2023-04-07T08:55:55;100002.41;;;13.05;nan
6349;BME280;3207;42.648;23.406;2023-04-07T08:58:22;100003.19;;;12.64;nan
6349;BME280;3207;42.648;23.406;2023-04-07T09:00:49;99995.38;;;13.05;nan
6349;BME280;3207;42.648;23.406;2023-04-07T09:03:17;99997.84;;;13.39;nan
6349;BME280;3207;42.648;23.406;2023-04-07T09:05:45;100003.28;;;13.77;nan
6349;BME280;3207;42.648;23.406;2023-04-07T09:08:12;100001.91;;;13.73;nan
6349;BME280;3207;42.648;23.406;2023-04-07T09:10:40;99998.91;;;13.87;nan
6349;BME280;3207;42.648;23.406;2023-04-07T09:13:07;99996.19;;;13.38;nan
6349;BME280;3207;42.648;23.406;2023-04-07T09:15:34;99999.97;;;13.75;nan
6349;BME280;3207;42.648;23.406;2023-04-07T09:18:01;99988.78;;;14.23;nan
6349;BME280;3207;42.648;23.406;2023-04-07T09:20:57;99995.72;;;15.30;nan
6349;BME280;3207;42.648;23.406;2023-04-07T09:23:27;99998.34;;;15.39;nan
6349;BME280;3207;42.648;23.406;2023-04-07T09:25:57;99980.50;;;16.07;nan
6349;BME280;3207;42.648;23.406;2023-04-07T09:28:37;99993.72;;;16.25;nan
6349;BME280;3207;42.648;23.406;2023-04-07T09:31:06;99996.41;;;16.78;nan
6349;BME280;3207;42.648;23.406;2023-04-07T09:33:33;99984.25;;;17.29;nan
6349;BME280;3207;42.648;23.406;2023-04-07T09:36:00;99991.38;;;17.54;nan
6349;BME280;3207;42.648;23.406;2023-04-07T09:38:32;99990.38;;;18.23;nan
6349;BME280;3207;42.648;23.406;2023-04-07T09:41:06;99995.16;;;18.94;nan
6349;BME280;3207;42.648;23.406;2023-04-07T09:43:35;99990.50;;;19.21;nan
6349;BME280;3207;42.648;23.406;2023-04-07T09:46:07;99975.72;;;19.59;nan
6349;BME280;3207;42.648;23.406;2023-04-07T09:48:34;99979.50;;;19.64;nan
6349;BME280;3207;42.648;23.406;2023-04-07T09:51:04;99983.28;;;20.17;nan
6349;BME280;3207;42.648;23.406;2023-04-07T09:53:41;99975.22;;;20.64;nan
6349;BME280;3207;42.648;23.406;2023-04-07T09:56:10;99962.47;;;20.82;nan
6349;BME280;3207;42.648;23.406;2023-04-07T09:58:38;99968.56;;;21.43;nan
6349;BME280;3207;42.648;23.406;2023-04-07T10:01:06;99969.59;;;21.72;nan
6349;BME280;3207;42.648;23.406;2023-04-07T10:03:34;99968.00;;;22.07;nan
6349;BME280;3207;42.648;23.406;2023-04-07T10:06:01;99953.00;;;22.56;nan
6349;BME280;3207;42.648;23.406;2023-04-07T10:08:30;99960.16;;;23.26;nan
6349;BME280;3207;42.648;23.406;2023-04-07T10:10:58;99964.66;;;23.88;nan
6349;BME280;3207;42.648;23.406;2023-04-07T10:13:27;99957.84;;;24.33;nan
6349;BME280;3207;42.648;23.406;2023-04-07T10:15:55;99956.69;;;23.32;nan
6349;BME280;3207;42.648;23.406;2023-04-07T10:18:23;99957.53;;;24.08;nan
6349;BME280;3207;42.648;23.406;2023-04-07T10:20:55;99953.63;;;25.18;nan
6349;BME280;3207;42.648;23.406;2023-04-07T10:23:27;99956.94;;;26.04;nan
6349;BME280;3207;42.648;23.406;2023-04-07T10:25:57;99958.63;;;25.92;nan
6349;BME280;3207;42.648;23.406;2023-04-07T10:28:27;99950.00;;;26.66;nan
6349;BME280;3207;42.648;23.406;2023-04-07T10:30:56;99935.00;;;26.83;nan
6349;BME280;3207;42.648;23.406;2023-04-07T10:33:43;99941.63;;;26.11;nan
6349;BME280;3207;42.648;23.406;2023-04-07T10:36:11;99943.44;;;26.24;nan
6349;BME280;3207;42.648;23.406;2023-04-07T10:38:37;99947.66;;;26.45;nan
6349;BME280;3207;42.648;23.406;2023-04-07T10:41:30;99943.28;;;25.61;nan
6349;BME280;3207;42.648;23.406;2023-04-07T10:43:59;99944.63;;;23.36;nan
6349;BME280;3207;42.648;23.406;2023-04-07T10:47:02;99930.03;;;22.77;nan
6349;BME280;3207;42.648;23.406;2023-04-07T10:49:30;99931.28;;;23.36;nan
6349;BME280;3207;42.648;23.406;2023-04-07T10:52:23;99931.66;;;22.14;nan
6349;BME280;3207;42.648;23.406;2023-04-07T11:01:19;99920.31;;;23.53;nan
6349;BME280;3207;42.648;23.406;2023-04-07T11:03:58;99923.59;;;25.09;nan
6349;BME280;3207;42.648;23.406;2023-04-07T11:06:25;99914.97;;;26.23;nan
6349;BME280;3207;42.648;23.406;2023-04-07T11:08:52;99920.81;;;27.99;nan
6349;BME280;3207;42.648;23.406;2023-04-07T11:11:37;99918.81;;;28.54;nan
6349;BME280;3207;42.648;23.406;2023-04-07T11:14:04;99902.50;;;29.37;nan
6349;BME280;3207;42.648;23.406;2023-04-07T11:16:40;99913.25;;;29.49;nan
6349;BME280;3207;42.648;23.406;2023-04-07T11:19:08;99913.97;;;30.70;nan
6349;BME280;3207;42.648;23.406;2023-04-07T11:21:35;99917.31;;;31.10;nan
6349;BME280;3207;42.648;23.406;2023-04-07T11:24:02;99922.09;;;32.07;nan
6349;BME280;3207;42.648;23.406;2023-04-07T11:26:35;99913.97;;;31.42;nan
6349;BME280;3207;42.648;23.406;2023-04-07T11:29:03;99909.84;;;32.53;nan
6349;BME280;3207;42.648;23.406;2023-04-07T11:31:30;99900.16;;;33.31;nan
6349;BME280;3207;42.648;23.406;2023-04-07T11:34:00;99907.00;;;31.89;nan
6349;BME280;3207;42.648;23.406;2023-04-07T11:36:29;99886.78;;;31.70;nan
6349;BME280;3207;42.648;23.406;2023-04-07T11:38:57;99898.88;;;29.83;nan
6349;BME280;3207;42.648;23.406;2023-04-07T11:41:26;99884.50;;;30.06;nan
6349;BME280;3207;42.648;23.406;2023-04-07T11:44:06;99880.59;;;30.14;nan
6349;BME280;3207;42.648;23.406;2023-04-07T11:46:34;99877.34;;;29.08;nan
6349;BME280;3207;42.648;23.406;2023-04-07T11:49:10;99866.09;;;28.23;nan
6349;BME280;3207;42.648;23.406;2023-04-07T11:51:37;99862.13;;;27.11;nan
6349;BME280;3207;42.648;23.406;2023-04-07T11:54:05;99854.69;;;26.88;nan
6349;BME280;3207;42.648;23.406;2023-04-07T11:56:43;99847.66;;;25.10;nan
6349;BME280;3207;42.648;23.406;2023-04-07T11:59:18;99846.84;;;24.70;nan
6349;BME280;3207;42.648;23.406;2023-04-07T12:01:47;99845.09;;;23.02;nan
6349;BME280;3207;42.648;23.406;2023-04-07T12:04:15;99844.59;;;22.85;nan
6349;BME280;3207;42.648;23.406;2023-04-07T12:06:43;99843.00;;;22.69;nan
6349;BME280;3207;42.648;23.406;2023-04-07T12:09:25;99841.06;;;21.92;nan
6349;BME280;3207;42.648;23.406;2023-04-07T12:11:53;99841.31;;;21.98;nan
6349;BME280;3207;42.648;23.406;2023-04-07T12:14:19;99835.25;;;22.04;nan
6349;BME280;3207;42.648;23.406;2023-04-07T12:16:46;99837.63;;;22.13;nan
6349;BME280;3207;42.648;23.406;2023-04-07T12:19:14;99822.34;;;22.22;nan
6349;BME280;3207;42.648;23.406;2023-04-07T12:21:41;99843.94;;;22.55;nan
6349;BME280;3207;42.648;23.406;2023-04-07T12:24:08;99818.81;;;22.43;nan
6349;BME280;3207;42.648;23.406;2023-04-07T12:26:35;99839.81;;;22.31;nan
6349;BME280;3207;42.648;23.406;2023-04-07T12:29:02;99834.63;;;22.23;nan
6349;BME280;3207;42.648;23.406;2023-04-07T12:31:30;99823.34;;;22.00;nan
6349;BME280;3207;42.648;23.406;2023-04-07T12:33:57;99813.53;;;22.00;nan
6349;BME280;3207;42.648;23.406;2023-04-07T12:36:25;99825.25;;;21.70;nan
6349;BME280;3207;42.648;23.406;2023-04-07T12:38:54;99821.84;;;21.40;nan
6349;BME280;3207;42.648;23.406;2023-04-07T12:41:21;99818.81;;;21.64;nan
6349;BME280;3207;42.648;23.406;2023-04-07T12:43:48;99818.91;;;21.71;nan
6349;BME280;3207;42.648;23.406;2023-04-07T12:46:15;99812.53;;;21.86;nan
6349;BME280;3207;42.648;23.406;2023-04-07T12:48:43;99820.00;;;21.98;nan
6349;BME280;3207;42.648;23.406;2023-04-07T12:51:10;99807.13;;;21.80;nan
6349;BME280;3207;42.648;23.406;2023-04-07T12:53:38;99803.00;;;21.77;nan
6349;BME280;3207;42.648;23.406;2023-04-07T12:56:05;99804.75;;;21.49;nan
6349;BME280;3207;42.648;23.406;2023-04-07T12:58:32;99811.16;;;21.10;nan
6349;BME280;3207;42.648;23.406;2023-04-07T13:00:59;99813.66;;;20.82;nan
6349;BME280;3207;42.648;23.406;2023-04-07T13:03:26;99778.75;;;20.33;nan
6349;BME280;3207;42.648;23.406;2023-04-07T13:05:52;99799.28;;;20.17;nan
6349;BME280;3207;42.648;23.406;2023-04-07T13:08:20;99793.91;;;20.25;nan
6349;BME280;3207;42.648;23.406;2023-04-07T13:10:48;99795.81;;;20.16;nan
6349;BME280;3207;42.648;23.406;2023-04-07T13:13:15;99788.66;;;20.17;nan
6349;BME280;3207;42.648;23.406;2023-04-07T13:15:41;99783.66;;;20.22;nan
6349;BME280;3207;42.648;23.406;2023-04-07T13:18:08;99787.69;;;19.95;nan
6349;BME280;3207;42.648;23.406;2023-04-07T13:20:35;99786.47;;;19.52;nan
6349;BME280;3207;42.648;23.406;2023-04-07T13:23:02;99781.56;;;19.32;nan
6349;BME280;3207;42.648;23.406;2023-04-07T13:25:29;99761.28;;;19.17;nan
6349;BME280;3207;42.648;23.406;2023-04-07T13:27:57;99783.69;;;18.98;nan
6349;BME280;3207;42.648;23.406;2023-04-07T13:30:25;99772.03;;;18.68;nan
6349;BME280;3207;42.648;23.406;2023-04-07T13:32:51;99775.84;;;18.65;nan
6349;BME280;3207;42.648;23.406;2023-04-07T13:35:18;99775.03;;;18.41;nan
6349;BME280;3207;42.648;23.406;2023-04-07T13:37:45;99777.53;;;18.26;nan
6349;BME280;3207;42.648;23.406;2023-04-07T13:40:12;99770.94;;;18.22;nan
6349;BME280;3207;42.648;23.406;2023-04-07T13:42:39;99759.66;;;18.12;nan
6349;BME280;3207;42.648;23.406;2023-04-07T13:45:08;99757.03;;;18.20;nan
6349;BME280;3207;42.648;23.406;2023-04-07T13:47:35;99754.06;;;18.07;nan